Terminal Aerodrome Forecast
Issued by NWS

Home | Current Version | Previous Version | Text Only | Print | Product List | Glossary On
Versions: 1 2 3 4 5 6 7 8 9 10 11 12 13 14 15 16 17 18 19 20 21 22
000
FTUS41 KBOX 131314 AAA
TAFBAF
TAF AMD
KBAF 131314Z 1313/1412 26011KT P6SM BKN025
     FM131400 29012G28KT P6SM BKN025
     FM131600 29015G30KT P6SM BKN030
     FM131900 29020G39KT P6SM SCT045
     FM140300 26008G19KT P6SM BKN100
     FM140500 25007KT P6SM BKN060=

USA.gov is the U.S. government's official web portal to all federal, state and local government web resources and services.